Time;durP1;ratioP1;P1;durP2;ratioP2;P2;SDS_P1;SDS_P2;PMS_P1;PMS_P2;Temp;Humidity;BMP_temperature;BMP_pressure;BME280_temperature;BME280_humidity;BME280_pressure;Samples;Min_cycle;Max_cycle;Signal;HPM_P1;HPM_P2
2023/10/19 00:02:08;;;;;;;18.63;12.00;;;11.10;99.90;;;;;;5042725;28;20089;-75
2023/10/19 00:04:35;;;;;;;23.93;13.33;;;11.10;99.90;;;;;;5055852;28;20029;-75
2023/10/19 00:07:04;;;;;;;23.00;12.47;;;11.10;99.90;;;;;;5053143;28;20006;-74
2023/10/19 00:09:36;;;;;;;19.73;11.70;;;11.10;99.90;;;;;;5042860;28;20029;-75
2023/10/19 00:12:03;;;;;;;17.92;11.93;;;11.10;99.90;;;;;;5040271;28;20092;-73
2023/10/19 00:14:32;;;;;;;21.07;13.03;;;11.20;99.90;;;;;;5035555;28;20081;-73
2023/10/19 00:17:00;;;;;;;17.60;12.20;;;11.20;99.90;;;;;;5036402;28;20029;-75
2023/10/19 00:19:28;;;;;;;19.40;13.10;;;11.20;99.90;;;;;;5038641;28;20081;-73
2023/10/19 00:21:55;;;;;;;21.43;13.37;;;11.20;99.90;;;;;;5040703;28;20068;-75
2023/10/19 00:24:23;;;;;;;17.53;11.47;;;11.30;99.90;;;;;;5056975;28;20017;-74
2023/10/19 00:26:54;;;;;;;21.40;12.77;;;11.30;99.90;;;;;;5035725;28;20044;-74
2023/10/19 00:29:40;;;;;;;19.67;12.47;;;11.20;99.90;;;;;;5054565;28;20104;-76
2023/10/19 00:32:13;;;;;;;20.20;12.80;;;11.30;99.90;;;;;;5052136;28;20170;-74
2023/10/19 00:34:50;;;;;;;21.73;12.83;;;11.30;99.90;;;;;;5057809;28;20101;-73
2023/10/19 00:37:19;;;;;;;17.70;11.87;;;11.40;99.90;;;;;;5058062;28;20045;-73
2023/10/19 00:39:50;;;;;;;19.07;11.83;;;11.40;99.90;;;;;;5055814;28;20012;-74
2023/10/19 00:42:20;;;;;;;19.70;12.40;;;11.40;99.90;;;;;;5055503;28;20046;-75
2023/10/19 00:44:50;;;;;;;22.53;11.63;;;11.40;99.90;;;;;;5056024;28;20097;-74
2023/10/19 00:47:24;;;;;;;19.97;13.00;;;11.40;99.90;;;;;;5054692;28;20021;-74
2023/10/19 00:49:50;;;;;;;20.43;12.33;;;11.40;99.90;;;;;;5055522;28;20026;-74
2023/10/19 00:52:19;;;;;;;21.47;12.63;;;11.40;99.90;;;;;;5035904;28;20067;-75
2023/10/19 00:54:52;;;;;;;19.03;12.67;;;11.40;99.90;;;;;;5037069;28;20040;-76
2023/10/19 00:57:20;;;;;;;24.47;12.83;;;11.40;99.90;;;;;;5036576;28;20009;-74
2023/10/19 00:59:54;;;;;;;19.23;12.67;;;11.40;99.90;;;;;;5055251;28;20028;-75
2023/10/19 01:02:21;;;;;;;22.83;12.97;;;11.50;99.90;;;;;;5053771;28;20062;-73
2023/10/19 01:05:06;;;;;;;18.53;12.13;;;11.50;99.90;;;;;;5036243;28;20013;-73
2023/10/19 01:07:38;;;;;;;23.33;13.33;;;11.50;99.90;;;;;;5037552;28;20029;-75
2023/10/19 01:10:05;;;;;;;17.73;12.57;;;11.50;99.90;;;;;;5052104;28;20028;-73
2023/10/19 01:15:29;;;;;;;22.10;13.00;;;11.60;99.90;;;;;;5051825;28;20052;-72
2023/10/19 01:17:56;;;;;;;21.67;12.87;;;11.60;99.90;;;;;;5038488;28;20044;-74
2023/10/19 01:23:06;;;;;;;20.30;12.83;;;11.60;99.90;;;;;;5055141;28;20045;-72
2023/10/19 01:28:17;;;;;;;17.93;11.97;;;11.70;99.90;;;;;;5057657;28;20037;-73
2023/10/19 01:30:45;;;;;;;19.20;12.33;;;11.70;99.90;;;;;;5039052;28;20170;-73
2023/10/19 01:33:15;;;;;;;19.00;12.50;;;11.70;99.90;;;;;;5037508;28;20014;-73
2023/10/19 01:38:33;;;;;;;16.63;11.13;;;11.80;99.90;;;;;;5054819;28;20020;-73
2023/10/19 01:40:59;;;;;;;19.37;12.60;;;11.80;99.90;;;;;;5052845;28;20022;-73
2023/10/19 01:43:30;;;;;;;19.83;12.60;;;11.70;99.90;;;;;;5054227;28;20029;-73
2023/10/19 01:46:04;;;;;;;17.60;12.07;;;11.80;99.90;;;;;;5037103;28;20029;-73
2023/10/19 01:48:35;;;;;;;18.03;12.00;;;11.80;99.90;;;;;;5039524;28;20138;-73
2023/10/19 01:51:10;;;;;;;19.37;11.87;;;11.80;99.90;;;;;;5052861;28;20097;-73
2023/10/19 01:53:36;;;;;;;19.13;11.73;;;11.80;99.90;;;;;;5035170;28;20040;-73
2023/10/19 01:56:05;;;;;;;18.57;12.33;;;11.80;99.90;;;;;;5034952;28;20018;-74
2023/10/19 01:58:36;;;;;;;19.70;11.33;;;11.90;99.90;;;;;;5038801;28;20029;-73
2023/10/19 02:01:06;;;;;;;18.03;11.43;;;11.90;99.90;;;;;;5053989;28;20025;-73
2023/10/19 02:03:35;;;;;;;17.77;11.07;;;11.90;99.90;;;;;;5053659;28;20018;-73
2023/10/19 02:06:17;;;;;;;17.87;11.57;;;11.90;99.90;;;;;;5056576;28;20022;-74
2023/10/19 02:08:48;;;;;;;;;;;11.90;99.90;;;;;;5040584;28;20033;-73
2023/10/19 02:11:18;;;;;;;18.53;10.20;;;11.90;99.90;;;;;;5050488;28;19967;-73
2023/10/19 02:13:49;;;;;;;18.10;12.27;;;11.90;99.90;;;;;;5053912;28;20021;-73
2023/10/19 02:16:21;;;;;;;20.93;11.27;;;11.90;99.90;;;;;;5057837;28;20009;-73
2023/10/19 02:18:53;;;;;;;18.33;11.53;;;11.90;99.90;;;;;;5058048;28;20059;-73
2023/10/19 02:21:30;;;;;;;17.73;11.13;;;11.90;99.90;;;;;;5039943;28;20014;-73
2023/10/19 02:23:59;;;;;;;16.20;11.70;;;11.90;99.90;;;;;;5042506;28;20018;-73
2023/10/19 02:26:28;;;;;;;16.10;10.87;;;12.00;99.90;;;;;;5055249;28;20029;-73
2023/10/19 02:28:56;;;;;;;15.97;11.23;;;12.00;99.90;;;;;;5056299;28;20044;-73
2023/10/19 02:31:25;;;;;;;14.90;10.70;;;12.00;99.90;;;;;;5044965;28;20024;-73
2023/10/19 02:34:00;;;;;;;15.77;10.37;;;12.00;99.90;;;;;;5038401;28;20052;-73
2023/10/19 02:36:30;;;;;;;15.50;10.63;;;12.00;99.90;;;;;;5039242;28;20077;-73
2023/10/19 02:39:07;;;;;;;18.20;10.63;;;12.00;99.90;;;;;;5057664;28;20020;-72
2023/10/19 02:41:35;;;;;;;19.37;11.97;;;12.00;99.90;;;;;;5055536;28;20041;-73
2023/10/19 02:44:09;;;;;;;17.73;11.30;;;11.90;99.90;;;;;;5049206;28;20010;-72
2023/10/19 02:46:41;;;;;;;13.90;10.23;;;11.90;99.90;;;;;;5031888;28;20045;-73
2023/10/19 02:49:11;;;;;;;16.38;11.15;;;11.90;99.90;;;;;;5029664;28;20045;-73
2023/10/19 02:51:44;;;;;;;19.10;12.30;;;11.90;99.90;;;;;;5031652;28;20013;-74
2023/10/19 02:54:17;;;;;;;17.47;11.30;;;11.90;99.90;;;;;;5034824;28;20029;-73
2023/10/19 02:56:47;;;;;;;15.77;11.50;;;11.90;99.90;;;;;;5035836;28;20041;-73
2023/10/19 02:59:16;;;;;;;16.40;10.47;;;11.90;99.90;;;;;;5036333;28;20041;-73
2023/10/19 03:01:48;;;;;;;16.77;12.03;;;11.90;99.90;;;;;;5035686;28;20038;-74
2023/10/19 03:04:16;;;;;;;16.98;11.15;;;11.90;99.90;;;;;;5032173;28;20029;-74
2023/10/19 03:06:44;;;;;;;19.13;11.67;;;11.90;99.90;;;;;;5030991;28;20035;-74
2023/10/19 03:09:13;;;;;;;16.63;11.93;;;11.90;99.90;;;;;;5051562;28;20025;-72
2023/10/19 03:11:45;;;;;;;15.60;10.77;;;11.90;99.90;;;;;;5030517;28;20028;-73
2023/10/19 03:14:11;;;;;;;23.02;11.77;;;11.90;99.90;;;;;;5038665;28;20022;-72
2023/10/19 03:16:41;;;;;;;19.57;12.67;;;11.80;99.90;;;;;;5040262;28;20857;-73
2023/10/19 03:19:07;;;;;;;21.70;12.03;;;11.90;99.90;;;;;;5054685;28;20021;-73
2023/10/19 03:21:44;;;;;;;19.47;12.17;;;11.90;99.90;;;;;;5039215;28;20049;-73
2023/10/19 03:24:13;;;;;;;17.63;11.67;;;11.90;99.90;;;;;;5039239;28;20030;-73
2023/10/19 03:26:48;;;;;;;19.10;12.10;;;11.90;99.90;;;;;;5054810;28;20037;-72
2023/10/19 03:29:14;;;;;;;16.43;10.90;;;11.90;99.90;;;;;;5041586;28;20005;-73
2023/10/19 03:31:47;;;;;;;19.87;12.70;;;11.90;99.90;;;;;;5054566;28;20014;-73
2023/10/19 03:34:16;;;;;;;17.05;11.20;;;11.90;99.90;;;;;;5053232;28;20323;-73
2023/10/19 03:36:42;;;;;;;18.00;11.63;;;11.90;99.90;;;;;;5038156;28;20048;-73
2023/10/19 03:39:17;;;;;;;18.17;11.67;;;11.90;99.90;;;;;;5036673;28;20032;-73
2023/10/19 03:41:44;;;;;;;18.90;12.27;;;11.90;99.90;;;;;;5035742;28;20048;-73
2023/10/19 03:44:24;;;;;;;18.77;11.80;;;11.90;99.90;;;;;;5034231;28;20049;-73
2023/10/19 03:46:53;;;;;;;17.40;11.40;;;11.90;99.90;;;;;;5037978;28;20014;-73
2023/10/19 03:49:27;;;;;;;18.70;11.70;;;11.90;99.90;;;;;;5042372;28;20013;-73
2023/10/19 03:51:58;;;;;;;18.53;12.40;;;11.90;99.90;;;;;;5052100;28;20021;-73
2023/10/19 03:54:32;;;;;;;20.10;12.20;;;12.00;99.90;;;;;;5040468;28;20042;-74
2023/10/19 03:57:02;;;;;;;17.67;12.03;;;12.00;99.90;;;;;;5035261;28;20137;-73
2023/10/19 03:59:31;;;;;;;19.50;11.60;;;12.00;99.90;;;;;;5054232;28;20028;-73
2023/10/19 04:02:00;;;;;;;16.27;11.17;;;12.00;99.90;;;;;;5038717;28;20109;-73
2023/10/19 04:04:28;;;;;;;18.77;11.80;;;12.10;99.90;;;;;;5056729;28;20101;-73
2023/10/19 04:07:10;;;;;;;18.67;13.10;;;12.10;99.90;;;;;;5055766;28;20017;-73
2023/10/19 04:09:48;;;;;;;18.97;11.37;;;12.00;99.90;;;;;;5051919;28;20029;-73
2023/10/19 04:12:17;;;;;;;15.60;11.53;;;12.00;99.90;;;;;;5037699;28;20048;-74
2023/10/19 04:14:42;;;;;;;18.70;11.47;;;12.10;99.90;;;;;;5038786;28;20022;-72
2023/10/19 04:17:12;;;;;;;19.00;12.60;;;12.10;99.90;;;;;;5039725;28;20032;-73
2023/10/19 04:19:37;;;;;;;15.63;11.00;;;12.10;99.90;;;;;;5035740;28;20017;-73
2023/10/19 04:22:06;;;;;;;16.10;11.27;;;12.10;99.90;;;;;;5055884;28;20068;-74
2023/10/19 04:24:34;;;;;;;19.40;11.53;;;12.10;99.90;;;;;;5052163;28;20014;-73
2023/10/19 04:27:01;;;;;;;17.73;11.50;;;12.10;99.90;;;;;;5054062;28;20026;-73
2023/10/19 04:29:29;;;;;;;15.57;11.23;;;12.10;99.90;;;;;;5040443;28;20021;-74
2023/10/19 04:31:55;;;;;;;18.63;11.57;;;12.20;99.90;;;;;;5038533;28;20079;-73
2023/10/19 04:34:21;;;;;;;18.07;10.47;;;12.20;99.90;;;;;;5053574;28;20032;-73
2023/10/19 04:36:48;;;;;;;19.07;11.27;;;12.20;99.90;;;;;;5051544;28;20040;-73
2023/10/19 04:39:14;;;;;;;16.30;10.33;;;12.10;99.90;;;;;;5035241;28;20018;-73
2023/10/19 04:41:44;;;;;;;17.83;11.00;;;12.10;99.90;;;;;;5034118;28;20267;-73
2023/10/19 04:44:12;;;;;;;17.23;11.13;;;12.20;99.90;;;;;;5056495;28;20069;-74
2023/10/19 04:46:40;;;;;;;14.40;10.27;;;12.20;99.90;;;;;;5034681;28;20021;-74
2023/10/19 04:49:07;;;;;;;16.93;10.60;;;12.20;99.90;;;;;;5036661;28;20026;-73
2023/10/19 04:51:36;;;;;;;16.00;9.77;;;12.20;99.90;;;;;;5035530;28;20029;-74
2023/10/19 04:54:02;;;;;;;18.47;11.30;;;12.20;99.90;;;;;;5040148;28;20017;-74
2023/10/19 04:56:28;;;;;;;16.07;10.50;;;12.20;99.90;;;;;;5052239;28;20017;-75
2023/10/19 04:58:53;;;;;;;21.40;10.83;;;12.30;99.90;;;;;;5037664;28;20061;-74
2023/10/19 05:01:24;;;;;;;15.97;10.60;;;12.20;99.90;;;;;;5036847;28;20028;-73
2023/10/19 05:03:49;;;;;;;19.63;13.40;;;12.20;99.90;;;;;;5038842;28;20025;-73
2023/10/19 05:06:15;;;;;;;17.83;10.87;;;12.20;99.90;;;;;;5052227;28;20072;-74
2023/10/19 05:08:40;;;;;;;18.23;12.33;;;12.30;99.90;;;;;;5039084;28;20017;-73
2023/10/19 05:11:06;;;;;;;20.47;12.33;;;12.20;99.90;;;;;;5052812;28;20095;-73
2023/10/19 05:13:32;;;;;;;16.80;11.90;;;12.20;99.90;;;;;;5034601;28;20040;-73
2023/10/19 05:16:01;;;;;;;17.20;11.17;;;12.20;99.90;;;;;;5035994;28;20042;-73
2023/10/19 05:18:27;;;;;;;17.83;11.27;;;12.30;99.90;;;;;;5039071;28;20063;-73
2023/10/19 05:20:56;;;;;;;19.50;11.83;;;12.30;99.90;;;;;;5036704;28;21408;-74
2023/10/19 05:23:28;;;;;;;15.77;10.47;;;12.30;99.90;;;;;;5032786;28;20041;-73
2023/10/19 05:26:06;;;;;;;16.08;10.18;;;12.30;99.90;;;;;;5039085;28;20045;-73
2023/10/19 05:28:32;;;;;;;17.10;10.47;;;12.40;99.90;;;;;;5043600;28;20030;-74
2023/10/19 05:31:01;;;;;;;20.30;11.87;;;12.30;99.90;;;;;;5048829;28;20097;-74
2023/10/19 05:33:29;;;;;;;21.53;10.87;;;12.30;99.90;;;;;;5051612;28;20029;-73
2023/10/19 05:35:57;;;;;;;18.60;10.47;;;12.30;99.90;;;;;;5034294;28;20026;-73
2023/10/19 05:38:27;;;;;;;18.90;10.90;;;12.40;99.90;;;;;;5048820;28;20022;-73
2023/10/19 05:40:52;;;;;;;16.27;10.87;;;12.40;99.90;;;;;;5052982;28;20089;-74
2023/10/19 05:43:18;;;;;;;14.77;9.93;;;12.40;99.90;;;;;;5036841;28;20040;-73
2023/10/19 05:45:44;;;;;;;13.90;10.37;;;12.40;99.90;;;;;;5029768;28;20022;-73
2023/10/19 05:48:12;;;;;;;15.43;8.30;;;12.40;99.90;;;;;;5034764;28;20037;-73
2023/10/19 05:50:38;;;;;;;13.90;9.20;;;12.50;99.90;;;;;;5050934;28;20032;-74
2023/10/19 05:53:05;;;;;;;19.57;11.03;;;12.40;99.90;;;;;;5035277;28;20231;-73
2023/10/19 05:55:31;;;;;;;13.20;9.80;;;12.40;99.90;;;;;;5033910;28;20022;-73
2023/10/19 05:58:05;;;;;;;14.47;10.37;;;12.40;99.90;;;;;;5031613;28;20017;-73
2023/10/19 06:00:31;;;;;;;16.10;9.37;;;12.50;99.90;;;;;;5052712;28;20025;-73
2023/10/19 06:02:59;;;;;;;16.43;9.83;;;12.50;99.90;;;;;;5033664;28;20057;-74
2023/10/19 06:05:25;;;;;;;17.53;10.03;;;12.50;99.90;;;;;;5033528;28;20025;-72
2023/10/19 06:07:53;;;;;;;18.73;10.33;;;12.50;99.90;;;;;;5052086;28;20029;-73
2023/10/19 06:10:22;;;;;;;11.57;9.30;;;12.50;99.90;;;;;;5049683;28;20085;-73
2023/10/19 06:12:50;;;;;;;15.83;10.23;;;12.50;99.90;;;;;;5038961;28;20048;-73
2023/10/19 06:15:20;;;;;;;13.17;9.03;;;12.50;99.90;;;;;;5050587;28;20041;-73
2023/10/19 06:17:47;;;;;;;19.70;10.37;;;12.50;99.90;;;;;;5052051;28;20081;-73
2023/10/19 06:20:22;;;;;;;13.10;8.57;;;12.50;99.90;;;;;;5047307;28;20089;-73
2023/10/19 06:22:50;;;;;;;13.40;8.77;;;12.50;99.90;;;;;;5033299;28;20033;-73
2023/10/19 06:25:22;;;;;;;15.90;10.07;;;12.60;99.90;;;;;;5049686;28;20040;-73
2023/10/19 06:27:51;;;;;;;;;;;12.60;99.90;;;;;;5030201;28;20030;-73
2023/10/19 06:30:22;;;;;;;14.07;9.17;;;12.60;99.90;;;;;;5030887;28;19962;-73
2023/10/19 06:32:53;;;;;;;14.83;10.17;;;12.60;99.90;;;;;;5032710;28;20098;-73
2023/10/19 06:35:21;;;;;;;13.83;9.47;;;12.60;99.90;;;;;;5044218;28;20038;-73
2023/10/19 06:37:47;;;;;;;16.97;9.80;;;12.60;99.90;;;;;;5038913;28;20029;-73
2023/10/19 06:40:20;;;;;;;14.57;9.63;;;12.70;99.90;;;;;;5053254;28;20021;-73
2023/10/19 06:42:47;;;;;;;16.33;9.57;;;12.60;99.90;;;;;;5034399;28;20067;-72
2023/10/19 06:45:13;;;;;;;15.60;9.60;;;12.70;99.90;;;;;;5036054;28;20041;-73
2023/10/19 06:47:44;;;;;;;15.80;9.83;;;12.70;99.90;;;;;;5048443;28;20036;-74
2023/10/19 06:50:11;;;;;;;13.47;9.27;;;12.70;99.90;;;;;;5049380;28;20021;-74
2023/10/19 06:52:43;;;;;;;17.63;9.43;;;12.70;99.90;;;;;;5032863;28;20045;-73
2023/10/19 06:55:13;;;;;;;16.42;10.15;;;12.80;99.90;;;;;;5052315;28;20029;-73
2023/10/19 06:57:43;;;;;;;13.50;8.90;;;12.70;99.90;;;;;;5054778;28;20022;-73
2023/10/19 07:00:19;;;;;;;13.43;8.77;;;12.80;99.90;;;;;;5036473;28;20025;-74
2023/10/19 07:02:50;;;;;;;19.13;9.83;;;12.80;99.90;;;;;;5036468;28;20097;-73
2023/10/19 07:05:21;;;;;;;18.15;9.05;;;12.80;99.90;;;;;;5037184;28;20028;-74
2023/10/19 07:07:49;;;;;;;15.20;9.57;;;12.90;99.90;;;;;;5052429;28;20128;-73
2023/10/19 07:10:15;;;;;;;17.17;10.60;;;12.90;99.90;;;;;;5040266;28;20030;-74
2023/10/19 07:13:00;;;;;;;18.70;9.50;;;12.90;99.90;;;;;;5034614;28;20101;-73
2023/10/19 07:15:28;;;;;;;13.85;9.50;;;12.90;99.90;;;;;;5035660;28;20022;-74
2023/10/19 07:17:56;;;;;;;11.73;8.10;;;13.00;99.90;;;;;;5051013;28;20029;-73
2023/10/19 07:20:25;;;;;;;14.43;9.05;;;13.00;99.90;;;;;;5036078;28;20083;-73
2023/10/19 07:22:57;;;;;;;19.27;10.33;;;13.00;99.90;;;;;;5052706;28;20033;-74
2023/10/19 07:25:25;;;;;;;20.02;10.13;;;13.10;99.90;;;;;;5051128;28;20143;-73
2023/10/19 07:27:52;;;;;;;15.23;9.90;;;13.10;99.90;;;;;;5039057;28;20041;-73
2023/10/19 07:30:25;;;;;;;17.13;9.50;;;13.10;99.90;;;;;;5034236;28;20036;-73
2023/10/19 07:32:58;;;;;;;16.83;10.63;;;13.10;99.90;;;;;;5047599;28;20048;-73
2023/10/19 07:35:25;;;;;;;;;;;13.10;99.90;;;;;;5032960;28;20042;-73
2023/10/19 07:37:54;;;;;;;15.97;9.27;;;13.20;99.90;;;;;;5052169;28;19935;-73
2023/10/19 07:40:20;;;;;;;15.88;9.90;;;13.20;99.90;;;;;;5034959;28;20029;-73
2023/10/19 07:42:49;;;;;;;13.77;9.18;;;13.30;99.90;;;;;;5033795;28;20030;-73
2023/10/19 07:45:16;;;;;;;12.68;9.07;;;13.30;99.90;;;;;;5038592;28;20025;-73
2023/10/19 07:47:45;;;;;;;14.23;9.23;;;13.30;99.90;;;;;;5052357;28;20029;-74
2023/10/19 07:50:17;;;;;;;16.10;9.48;;;13.40;99.90;;;;;;5049751;28;20157;-74
2023/10/19 07:52:43;;;;;;;;;;;13.40;99.90;;;;;;5051247;28;20044;-73
2023/10/19 07:55:09;;;;;;;11.10;7.15;;;13.50;99.90;;;;;;5050661;28;19916;-73
2023/10/19 07:57:40;;;;;;;15.70;7.50;;;13.60;99.90;;;;;;5050669;28;20100;-73
2023/10/19 08:00:09;;;;;;;13.32;7.25;;;13.60;99.90;;;;;;5050886;28;20032;-73
2023/10/19 08:02:40;;;;;;;14.68;7.93;;;13.70;99.90;;;;;;5051091;28;20045;-73
2023/10/19 08:05:11;;;;;;;15.30;8.30;;;13.70;99.90;;;;;;5033311;28;20026;-74
2023/10/19 08:07:39;;;;;;;9.88;7.10;;;13.70;99.90;;;;;;5036184;28;20033;-73
2023/10/19 08:10:15;;;;;;;15.57;8.45;;;13.70;99.90;;;;;;5035507;28;20021;-73
2023/10/19 08:12:42;;;;;;;13.15;6.13;;;13.70;99.90;;;;;;5051357;28;20045;-73
2023/10/19 08:15:11;;;;;;;15.65;8.25;;;13.80;99.90;;;;;;5032220;28;20052;-74
2023/10/19 08:17:41;;;;;;;11.18;7.75;;;13.80;99.90;;;;;;5035606;28;20075;-73
2023/10/19 08:20:09;;;;;;;14.43;7.55;;;13.90;99.90;;;;;;5050414;28;20025;-73
2023/10/19 08:22:38;;;;;;;12.68;7.75;;;13.90;99.90;;;;;;5029682;28;20052;-73
2023/10/19 08:25:11;;;;;;;13.50;6.75;;;14.00;99.90;;;;;;5050021;28;20045;-73
2023/10/19 08:27:44;;;;;;;10.93;6.18;;;14.10;99.90;;;;;;5033236;28;20140;-73
2023/10/19 08:30:10;;;;;;;9.55;5.97;;;14.20;99.90;;;;;;5032090;28;20408;-74
2023/10/19 08:32:39;;;;;;;15.82;7.15;;;14.20;99.90;;;;;;5048008;28;20029;-74
2023/10/19 08:35:05;;;;;;;13.98;6.57;;;14.30;99.90;;;;;;5050000;28;20092;-74
2023/10/19 08:37:34;;;;;;;14.43;6.18;;;14.30;99.90;;;;;;5033471;28;20041;-73
2023/10/19 08:40:01;;;;;;;15.13;7.32;;;14.40;99.90;;;;;;5047936;28;20013;-73
2023/10/19 08:42:30;;;;;;;17.20;8.90;;;14.40;99.90;;;;;;5030614;28;20037;-73
2023/10/19 08:45:00;;;;;;;9.88;5.65;;;14.50;99.90;;;;;;5045588;28;20021;-73
2023/10/19 08:47:26;;;;;;;13.80;6.28;;;14.50;99.90;;;;;;5046434;28;20021;-74
2023/10/19 08:49:53;;;;;;;11.75;5.40;;;14.50;99.90;;;;;;5044514;28;20057;-73
2023/10/19 08:52:22;;;;;;;9.90;4.97;;;14.60;99.90;;;;;;5024642;28;20044;-73
2023/10/19 08:54:48;;;;;;;11.90;5.72;;;14.60;99.90;;;;;;5044401;28;20026;-74
2023/10/19 08:57:16;;;;;;;13.63;5.47;;;14.70;99.90;;;;;;5032398;28;20029;-74
2023/10/19 08:59:42;;;;;;;12.13;4.43;;;14.70;99.90;;;;;;5044679;28;20050;-73
2023/10/19 09:02:07;;;;;;;13.07;4.90;;;14.80;99.90;;;;;;5031046;28;20087;-73
2023/10/19 09:04:42;;;;;;;8.65;3.95;;;14.80;99.90;;;;;;5045850;28;20056;-73
2023/10/19 09:07:11;;;;;;;10.23;4.55;;;14.90;99.90;;;;;;5047035;28;20014;-73
2023/10/19 09:09:40;;;;;;;8.48;3.63;;;14.90;99.90;;;;;;5043272;28;20085;-73
2023/10/19 09:12:07;;;;;;;13.27;4.57;;;15.00;99.90;;;;;;5029342;28;20029;-73
2023/10/19 09:14:36;;;;;;;7.70;3.15;;;15.00;99.90;;;;;;5045476;28;20029;-73
2023/10/19 09:17:06;;;;;;;12.60;4.05;;;15.10;99.90;;;;;;5030833;28;20016;-75
2023/10/19 09:19:37;;;;;;;6.57;3.58;;;15.10;99.90;;;;;;5029276;28;20056;-73
2023/10/19 09:22:18;;;;;;;14.98;4.35;;;15.10;99.90;;;;;;5034465;28;20048;-73
2023/10/19 09:24:49;;;;;;;12.35;4.70;;;15.10;99.90;;;;;;5048834;28;20033;-73
2023/10/19 09:27:20;;;;;;;14.65;6.00;;;15.10;99.90;;;;;;5037216;28;20017;-74
2023/10/19 09:29:46;;;;;;;10.85;3.92;;;15.10;99.90;;;;;;5037192;28;20017;-73
2023/10/19 09:32:15;;;;;;;11.55;3.50;;;15.20;99.90;;;;;;5050388;28;20022;-73
2023/10/19 09:34:43;;;;;;;8.27;4.35;;;15.20;99.90;;;;;;5032325;28;21122;-73
2023/10/19 09:37:10;;;;;;;6.80;3.08;;;15.30;99.90;;;;;;5033829;28;20022;-75
2023/10/19 09:39:36;;;;;;;9.30;3.58;;;15.30;99.90;;;;;;5029794;28;20037;-74
2023/10/19 09:42:16;;;;;;;13.32;4.43;;;15.30;99.90;;;;;;5029586;28;20038;-74
2023/10/19 09:44:48;;;;;;;11.25;3.47;;;15.40;99.90;;;;;;5051442;28;20018;-73
2023/10/19 09:47:32;;;;;;;8.18;2.97;;;15.50;99.90;;;;;;5044745;28;20055;-74
2023/10/19 09:50:01;;;;;;;9.45;2.67;;;15.60;99.90;;;;;;5032110;28;20040;-73
2023/10/19 09:52:28;;;;;;;11.48;2.80;;;15.60;99.90;;;;;;5049798;28;20036;-73
2023/10/19 09:55:16;;;;;;;7.78;2.80;;;15.70;99.90;;;;;;5029637;28;20040;-74
2023/10/19 09:58:21;;;;;;;8.15;2.30;;;15.70;99.90;;;;;;5050016;28;20020;-73
2023/10/19 10:00:51;;;;;;;6.68;2.38;;;15.80;99.90;;;;;;5033161;28;20025;-73
2023/10/19 10:03:47;;;;;;;4.80;2.63;;;15.90;99.90;;;;;;5049389;28;20021;-73
2023/10/19 10:06:26;;;;;;;6.63;1.85;;;15.90;99.90;;;;;;5035942;28;20026;-74
2023/10/19 10:08:53;;;;;;;7.13;1.98;;;16.00;99.90;;;;;;5034351;28;20045;-73
2023/10/19 10:11:19;;;;;;;11.32;2.65;;;16.20;99.90;;;;;;5036447;28;20096;-73
2023/10/19 10:13:46;;;;;;;24.45;3.88;;;16.30;99.90;;;;;;5051453;28;20038;-74
2023/10/19 10:16:16;;;;;;;9.10;2.88;;;16.40;99.90;;;;;;5053279;28;20018;-74
2023/10/19 10:18:44;;;;;;;10.13;3.22;;;16.50;99.90;;;;;;5040229;28;20096;-74
2023/10/19 10:21:23;;;;;;;9.75;3.40;;;16.60;99.90;;;;;;5028339;28;20033;-81
2023/10/19 10:23:53;;;;;;;9.95;2.72;;;16.70;99.90;;;;;;5028613;28;20044;-77
2023/10/19 10:26:25;;;;;;;7.75;1.98;;;16.90;99.90;;;;;;5027638;28;20039;-79
2023/10/19 10:29:21;;;;;;;12.40;2.58;;;17.00;99.90;;;;;;5008618;28;20130;-81
2023/10/19 10:31:50;;;;;;;15.50;2.60;;;17.10;99.90;;;;;;5011663;28;20583;-78
2023/10/19 10:34:34;;;;;;;11.20;3.05;;;17.10;99.90;;;;;;5026331;28;21722;-83
2023/10/19 10:37:03;;;;;;;11.95;2.63;;;17.20;99.90;;;;;;5010144;28;20034;-80
2023/10/19 10:39:34;;;;;;;6.43;2.05;;;17.30;99.90;;;;;;5009379;28;20068;-79
2023/10/19 10:42:06;;;;;;;12.80;2.58;;;17.30;99.90;;;;;;5024809;28;20033;-79
2023/10/19 10:44:41;;;;;;;7.38;2.80;;;17.30;99.90;;;;;;5005586;28;20095;-81
2023/10/19 10:47:21;;;;;;;7.55;2.17;;;17.30;99.90;;;;;;5013057;28;20047;-81
2023/10/19 10:49:51;;;;;;;9.38;2.92;;;17.30;99.90;;;;;;5024559;28;20045;-80
2023/10/19 10:52:34;;;;;;;15.05;2.10;;;17.30;99.90;;;;;;5021509;28;20033;-80
2023/10/19 10:55:10;;;;;;;7.55;1.95;;;17.30;99.90;;;;;;5025492;28;20021;-80
2023/10/19 10:57:36;;;;;;;10.70;2.22;;;17.40;99.90;;;;;;5008746;28;20067;-79
2023/10/19 11:00:09;;;;;;;8.73;2.25;;;17.40;99.90;;;;;;5028193;28;20029;-81
2023/10/19 11:02:42;;;;;;;7.65;2.13;;;17.50;99.90;;;;;;5010510;28;20051;-80
2023/10/19 11:05:11;;;;;;;7.10;1.50;;;17.50;99.90;;;;;;5026705;28;20080;-85
2023/10/19 11:07:41;;;;;;;7.38;1.77;;;17.50;99.90;;;;;;5024229;28;20021;-82
2023/10/19 11:10:06;;;;;;;9.85;2.35;;;17.60;99.90;;;;;;5022560;28;20029;-78
2023/10/19 11:12:35;;;;;;;6.63;1.77;;;17.60;99.90;;;;;;5025298;28;20030;-83
2023/10/19 11:15:09;;;;;;;8.63;2.30;;;17.60;99.90;;;;;;5030363;28;20373;-83
2023/10/19 11:17:43;;;;;;;8.43;2.25;;;17.60;99.90;;;;;;5026993;28;20148;-79
2023/10/19 11:20:14;;;;;;;11.95;2.42;;;17.60;99.90;;;;;;5029514;28;20040;-82
2023/10/19 11:22:49;;;;;;;6.22;1.85;;;17.70;99.90;;;;;;5023918;28;20033;-79
2023/10/19 11:25:24;;;;;;;8.65;3.00;;;17.70;99.90;;;;;;5012900;28;20144;-81
2023/10/19 11:27:52;;;;;;;10.10;2.20;;;17.70;99.90;;;;;;5026918;28;20029;-82
2023/10/19 11:30:29;;;;;;;9.73;1.73;;;17.70;99.90;;;;;;5023534;28;20142;-79
2023/10/19 11:33:01;;;;;;;12.20;1.98;;;17.80;99.90;;;;;;5008723;28;20117;-81
2023/10/19 11:35:29;;;;;;;8.95;1.92;;;17.80;99.90;;;;;;5024380;28;20033;-83
2023/10/19 11:37:58;;;;;;;6.07;1.92;;;17.80;99.90;;;;;;5026190;28;20132;-81
2023/10/19 11:40:25;;;;;;;8.43;2.35;;;17.80;99.90;;;;;;5020837;28;20162;-84
2023/10/19 11:42:52;;;;;;;12.15;1.60;;;17.80;99.90;;;;;;5028341;28;20035;-82
2023/10/19 11:45:18;;;;;;;7.53;1.75;;;17.80;99.90;;;;;;5006543;28;20021;-83
2023/10/19 11:47:44;;;;;;;9.10;2.05;;;17.70;99.90;;;;;;5025862;28;20053;-80
2023/10/19 11:50:17;;;;;;;12.68;2.70;;;17.70;99.90;;;;;;5024032;28;20040;-79
2023/10/19 11:52:45;;;;;;;12.95;2.30;;;17.70;99.90;;;;;;5024145;28;20489;-81
2023/10/19 11:55:13;;;;;;;11.13;1.83;;;17.70;99.90;;;;;;5024370;28;20029;-79
2023/10/19 11:57:43;;;;;;;6.60;1.85;;;17.70;99.90;;;;;;5006054;28;20124;-81
2023/10/19 12:00:13;;;;;;;9.38;1.90;;;17.80;99.90;;;;;;5025493;28;20025;-79
2023/10/19 12:02:41;;;;;;;12.05;2.13;;;17.90;99.90;;;;;;5025048;28;20087;-78
2023/10/19 12:05:10;;;;;;;12.40;3.05;;;17.80;99.90;;;;;;5012157;28;20021;-83
2023/10/19 12:07:39;;;;;;;5.00;1.58;;;17.90;99.90;;;;;;5023809;28;20045;-81
2023/10/19 12:10:09;;;;;;;7.35;2.00;;;17.80;99.90;;;;;;5003812;28;21071;-82
2023/10/19 12:12:39;;;;;;;8.30;1.63;;;17.90;99.90;;;;;;5025630;28;20907;-80
2023/10/19 12:15:08;;;;;;;8.77;2.92;;;17.80;99.90;;;;;;5013883;28;20591;-82
2023/10/19 12:17:33;;;;;;;10.25;2.13;;;17.80;99.90;;;;;;5007184;28;20026;-80
2023/10/19 12:19:59;;;;;;;9.38;2.67;;;17.70;99.90;;;;;;5006122;28;20056;-82
2023/10/19 12:22:31;;;;;;;8.18;2.30;;;17.70;99.90;;;;;;5024390;28;20033;-83
2023/10/19 12:24:59;;;;;;;8.38;2.30;;;17.70;99.90;;;;;;5022703;28;20026;-82
2023/10/19 12:27:32;;;;;;;7.28;1.40;;;17.70;99.90;;;;;;5022742;28;20037;-78
2023/10/19 12:29:57;;;;;;;10.65;2.17;;;17.60;99.90;;;;;;5006238;28;20029;-79
2023/10/19 12:32:25;;;;;;;8.75;1.67;;;17.60;99.90;;;;;;5022766;28;20056;-82
2023/10/19 12:34:57;;;;;;;7.43;2.92;;;17.50;99.90;;;;;;5004476;28;20039;-81
2023/10/19 12:37:24;;;;;;;7.38;1.60;;;17.50;99.90;;;;;;5023890;28;20049;-82
2023/10/19 12:39:49;;;;;;;7.30;2.35;;;17.50;99.90;;;;;;5005014;28;20037;-80
2023/10/19 12:42:18;;;;;;;12.70;2.33;;;17.50;99.90;;;;;;5008936;28;20049;-79
2023/10/19 12:44:43;;;;;;;10.68;2.65;;;17.40;99.90;;;;;;5025756;28;20025;-79
2023/10/19 12:47:14;;;;;;;13.05;2.65;;;17.30;99.90;;;;;;5023982;28;20033;-80
2023/10/19 12:49:40;;;;;;;11.45;2.80;;;17.30;99.90;;;;;;5024535;28;20168;-79
2023/10/19 12:52:10;;;;;;;9.30;2.85;;;17.20;99.90;;;;;;5005788;28;20049;-81
2023/10/19 12:54:35;;;;;;;11.15;2.30;;;17.30;99.90;;;;;;5023081;28;20087;-78
2023/10/19 12:57:03;;;;;;;7.60;2.25;;;17.30;99.90;;;;;;5007393;28;20350;-78
2023/10/19 12:59:32;;;;;;;12.88;2.65;;;17.30;99.90;;;;;;5030401;28;20040;-76
2023/10/19 13:01:58;;;;;;;10.18;2.72;;;17.30;99.90;;;;;;5026998;28;20037;-78